sensor_id;sensor_type;location;lat;lon;timestamp;P1;durP1;ratioP1;P2;durP2;ratioP2
82159;SDS011;71734;50.876;7.372;2024-01-10T00:00:11;8.07;;;2.45;;
82159;SDS011;71734;50.876;7.372;2024-01-10T00:02:37;7.53;;;2.25;;
82159;SDS011;71734;50.876;7.372;2024-01-10T00:05:06;8.00;;;2.78;;
82159;SDS011;71734;50.876;7.372;2024-01-10T00:07:32;8.13;;;2.60;;
82159;SDS011;71734;50.876;7.372;2024-01-10T00:10:01;7.55;;;2.38;;
82159;SDS011;71734;50.876;7.372;2024-01-10T00:12:28;8.27;;;2.60;;
82159;SDS011;71734;50.876;7.372;2024-01-10T00:14:58;8.00;;;2.72;;
82159;SDS011;71734;50.876;7.372;2024-01-10T00:17:24;10.07;;;3.00;;
82159;SDS011;71734;50.876;7.372;2024-01-10T00:19:51;8.25;;;2.42;;
82159;SDS011;71734;50.876;7.372;2024-01-10T00:22:19;7.35;;;2.33;;
82159;SDS011;71734;50.876;7.372;2024-01-10T00:24:45;6.65;;;2.50;;
82159;SDS011;71734;50.876;7.372;2024-01-10T00:27:12;7.07;;;2.22;;
82159;SDS011;71734;50.876;7.372;2024-01-10T00:29:39;8.50;;;2.63;;
82159;SDS011;71734;50.876;7.372;2024-01-10T00:32:05;6.97;;;2.22;;
82159;SDS011;71734;50.876;7.372;2024-01-10T00:34:32;8.05;;;2.33;;
82159;SDS011;71734;50.876;7.372;2024-01-10T00:36:59;7.82;;;2.40;;
82159;SDS011;71734;50.876;7.372;2024-01-10T00:39:27;8.55;;;2.63;;
82159;SDS011;71734;50.876;7.372;2024-01-10T00:41:53;9.13;;;2.30;;
82159;SDS011;71734;50.876;7.372;2024-01-10T00:44:19;7.45;;;2.30;;
82159;SDS011;71734;50.876;7.372;2024-01-10T00:46:46;9.40;;;2.80;;
82159;SDS011;71734;50.876;7.372;2024-01-10T00:49:12;9.10;;;2.72;;
82159;SDS011;71734;50.876;7.372;2024-01-10T00:51:41;9.05;;;2.45;;
82159;SDS011;71734;50.876;7.372;2024-01-10T00:54:08;7.53;;;2.47;;
82159;SDS011;71734;50.876;7.372;2024-01-10T00:56:37;9.20;;;2.33;;
82159;SDS011;71734;50.876;7.372;2024-01-10T00:59:03;7.13;;;2.33;;
82159;SDS011;71734;50.876;7.372;2024-01-10T01:01:30;8.88;;;2.47;;
82159;SDS011;71734;50.876;7.372;2024-01-10T01:03:56;8.35;;;2.40;;
82159;SDS011;71734;50.876;7.372;2024-01-10T01:06:22;8.77;;;2.88;;
82159;SDS011;71734;50.876;7.372;2024-01-10T01:08:49;8.98;;;2.60;;
82159;SDS011;71734;50.876;7.372;2024-01-10T01:11:15;8.90;;;2.47;;
82159;SDS011;71734;50.876;7.372;2024-01-10T01:13:43;8.38;;;2.70;;
82159;SDS011;71734;50.876;7.372;2024-01-10T01:16:10;8.13;;;2.50;;
82159;SDS011;71734;50.876;7.372;2024-01-10T01:18:36;9.35;;;2.90;;
82159;SDS011;71734;50.876;7.372;2024-01-10T01:21:02;9.68;;;2.40;;
82159;SDS011;71734;50.876;7.372;2024-01-10T01:23:29;9.43;;;2.40;;
82159;SDS011;71734;50.876;7.372;2024-01-10T01:25:55;8.23;;;2.50;;
82159;SDS011;71734;50.876;7.372;2024-01-10T01:28:22;8.00;;;2.38;;
82159;SDS011;71734;50.876;7.372;2024-01-10T01:30:49;9.43;;;2.65;;
82159;SDS011;71734;50.876;7.372;2024-01-10T01:33:16;8.43;;;2.65;;
82159;SDS011;71734;50.876;7.372;2024-01-10T01:35:42;8.48;;;2.60;;
82159;SDS011;71734;50.876;7.372;2024-01-10T01:38:09;11.38;;;2.60;;
82159;SDS011;71734;50.876;7.372;2024-01-10T01:40:38;9.25;;;3.00;;
82159;SDS011;71734;50.876;7.372;2024-01-10T01:43:17;8.90;;;2.63;;
82159;SDS011;71734;50.876;7.372;2024-01-10T01:45:44;10.05;;;2.95;;
82159;SDS011;71734;50.876;7.372;2024-01-10T01:48:12;7.15;;;2.38;;
82159;SDS011;71734;50.876;7.372;2024-01-10T01:50:39;7.85;;;2.67;;
82159;SDS011;71734;50.876;7.372;2024-01-10T01:53:06;9.50;;;2.90;;
82159;SDS011;71734;50.876;7.372;2024-01-10T01:55:32;8.73;;;2.65;;
82159;SDS011;71734;50.876;7.372;2024-01-10T01:57:59;8.20;;;2.38;;
82159;SDS011;71734;50.876;7.372;2024-01-10T02:00:25;9.20;;;2.58;;
82159;SDS011;71734;50.876;7.372;2024-01-10T02:02:52;9.82;;;2.65;;
82159;SDS011;71734;50.876;7.372;2024-01-10T02:05:20;8.10;;;2.67;;
82159;SDS011;71734;50.876;7.372;2024-01-10T02:07:47;10.27;;;3.17;;
82159;SDS011;71734;50.876;7.372;2024-01-10T02:10:13;8.50;;;2.65;;
82159;SDS011;71734;50.876;7.372;2024-01-10T02:12:40;8.07;;;2.50;;
82159;SDS011;71734;50.876;7.372;2024-01-10T02:15:06;11.25;;;2.72;;
82159;SDS011;71734;50.876;7.372;2024-01-10T02:17:33;8.35;;;2.50;;
82159;SDS011;71734;50.876;7.372;2024-01-10T02:20:09;8.60;;;2.92;;
82159;SDS011;71734;50.876;7.372;2024-01-10T02:22:38;9.38;;;2.88;;
82159;SDS011;71734;50.876;7.372;2024-01-10T02:25:06;9.00;;;2.70;;
82159;SDS011;71734;50.876;7.372;2024-01-10T02:27:33;7.97;;;2.47;;
82159;SDS011;71734;50.876;7.372;2024-01-10T02:30:01;9.02;;;2.78;;
82159;SDS011;71734;50.876;7.372;2024-01-10T02:32:28;8.77;;;2.75;;
82159;SDS011;71734;50.876;7.372;2024-01-10T02:34:55;9.48;;;2.80;;
82159;SDS011;71734;50.876;7.372;2024-01-10T02:37:21;7.45;;;2.22;;
82159;SDS011;71734;50.876;7.372;2024-01-10T02:39:48;8.43;;;2.78;;
82159;SDS011;71734;50.876;7.372;2024-01-10T02:42:15;7.35;;;2.78;;
82159;SDS011;71734;50.876;7.372;2024-01-10T02:44:42;8.52;;;3.03;;
82159;SDS011;71734;50.876;7.372;2024-01-10T02:47:09;10.73;;;3.20;;
82159;SDS011;71734;50.876;7.372;2024-01-10T02:49:37;9.93;;;2.72;;
82159;SDS011;71734;50.876;7.372;2024-01-10T02:52:04;9.63;;;2.75;;
82159;SDS011;71734;50.876;7.372;2024-01-10T02:54:31;9.80;;;2.85;;
82159;SDS011;71734;50.876;7.372;2024-01-10T02:56:57;9.48;;;2.90;;
82159;SDS011;71734;50.876;7.372;2024-01-10T02:59:25;9.75;;;3.03;;
82159;SDS011;71734;50.876;7.372;2024-01-10T03:01:52;10.23;;;3.20;;
82159;SDS011;71734;50.876;7.372;2024-01-10T03:04:18;9.02;;;2.70;;
82159;SDS011;71734;50.876;7.372;2024-01-10T03:06:44;8.82;;;3.17;;
82159;SDS011;71734;50.876;7.372;2024-01-10T03:09:11;10.43;;;3.30;;
82159;SDS011;71734;50.876;7.372;2024-01-10T03:11:37;9.20;;;3.20;;
82159;SDS011;71734;50.876;7.372;2024-01-10T03:14:06;8.88;;;2.60;;
82159;SDS011;71734;50.876;7.372;2024-01-10T03:16:36;9.70;;;3.00;;
82159;SDS011;71734;50.876;7.372;2024-01-10T03:19:03;10.18;;;3.40;;
82159;SDS011;71734;50.876;7.372;2024-01-10T03:21:30;9.85;;;3.28;;
82159;SDS011;71734;50.876;7.372;2024-01-10T03:23:56;9.43;;;3.22;;
82159;SDS011;71734;50.876;7.372;2024-01-10T03:26:24;9.32;;;3.33;;
82159;SDS011;71734;50.876;7.372;2024-01-10T03:28:51;9.75;;;2.95;;
82159;SDS011;71734;50.876;7.372;2024-01-10T03:31:18;10.60;;;3.10;;
82159;SDS011;71734;50.876;7.372;2024-01-10T03:33:46;9.23;;;3.00;;
82159;SDS011;71734;50.876;7.372;2024-01-10T03:36:16;8.38;;;2.78;;
82159;SDS011;71734;50.876;7.372;2024-01-10T03:38:43;11.23;;;3.35;;
82159;SDS011;71734;50.876;7.372;2024-01-10T03:41:12;9.88;;;2.95;;
82159;SDS011;71734;50.876;7.372;2024-01-10T03:43:39;11.43;;;3.78;;
82159;SDS011;71734;50.876;7.372;2024-01-10T03:46:05;11.50;;;3.75;;
82159;SDS011;71734;50.876;7.372;2024-01-10T03:48:31;12.68;;;3.97;;
82159;SDS011;71734;50.876;7.372;2024-01-10T03:50:59;11.88;;;3.47;;
82159;SDS011;71734;50.876;7.372;2024-01-10T03:53:26;11.30;;;3.15;;
82159;SDS011;71734;50.876;7.372;2024-01-10T03:55:52;12.25;;;3.20;;
82159;SDS011;71734;50.876;7.372;2024-01-10T03:58:19;12.40;;;3.70;;
82159;SDS011;71734;50.876;7.372;2024-01-10T04:00:45;9.38;;;3.15;;
82159;SDS011;71734;50.876;7.372;2024-01-10T04:03:12;7.38;;;2.47;;
82159;SDS011;71734;50.876;7.372;2024-01-10T04:05:38;10.13;;;3.00;;
82159;SDS011;71734;50.876;7.372;2024-01-10T04:08:06;10.35;;;2.97;;
82159;SDS011;71734;50.876;7.372;2024-01-10T04:10:33;9.77;;;2.92;;
82159;SDS011;71734;50.876;7.372;2024-01-10T04:12:59;7.97;;;2.83;;
82159;SDS011;71734;50.876;7.372;2024-01-10T04:15:25;10.07;;;2.92;;
82159;SDS011;71734;50.876;7.372;2024-01-10T04:17:52;9.23;;;2.85;;
82159;SDS011;71734;50.876;7.372;2024-01-10T04:20:18;10.05;;;3.33;;
82159;SDS011;71734;50.876;7.372;2024-01-10T04:22:45;8.77;;;2.95;;
82159;SDS011;71734;50.876;7.372;2024-01-10T04:25:12;9.48;;;3.00;;
82159;SDS011;71734;50.876;7.372;2024-01-10T04:27:39;9.27;;;3.13;;
82159;SDS011;71734;50.876;7.372;2024-01-10T04:30:06;10.57;;;3.25;;
82159;SDS011;71734;50.876;7.372;2024-01-10T04:32:33;8.23;;;2.58;;
82159;SDS011;71734;50.876;7.372;2024-01-10T04:35:00;9.52;;;3.47;;
82159;SDS011;71734;50.876;7.372;2024-01-10T04:37:26;9.80;;;3.10;;
82159;SDS011;71734;50.876;7.372;2024-01-10T04:39:52;9.10;;;2.78;;
82159;SDS011;71734;50.876;7.372;2024-01-10T04:42:20;10.75;;;3.05;;
82159;SDS011;71734;50.876;7.372;2024-01-10T04:44:47;9.60;;;2.92;;
82159;SDS011;71734;50.876;7.372;2024-01-10T04:47:14;9.98;;;2.70;;
82159;SDS011;71734;50.876;7.372;2024-01-10T04:49:41;9.93;;;3.10;;
82159;SDS011;71734;50.876;7.372;2024-01-10T04:52:08;11.50;;;3.22;;
82159;SDS011;71734;50.876;7.372;2024-01-10T04:54:34;12.18;;;3.50;;
82159;SDS011;71734;50.876;7.372;2024-01-10T04:57:00;12.73;;;3.58;;
82159;SDS011;71734;50.876;7.372;2024-01-10T04:59:28;12.23;;;3.90;;
82159;SDS011;71734;50.876;7.372;2024-01-10T05:01:55;11.68;;;3.97;;
82159;SDS011;71734;50.876;7.372;2024-01-10T05:04:21;12.32;;;3.38;;
82159;SDS011;71734;50.876;7.372;2024-01-10T05:06:47;10.23;;;3.92;;
82159;SDS011;71734;50.876;7.372;2024-01-10T05:09:14;13.15;;;3.92;;
82159;SDS011;71734;50.876;7.372;2024-01-10T05:11:40;9.43;;;3.58;;
82159;SDS011;71734;50.876;7.372;2024-01-10T05:14:07;11.43;;;3.70;;
82159;SDS011;71734;50.876;7.372;2024-01-10T05:16:35;9.40;;;3.00;;
82159;SDS011;71734;50.876;7.372;2024-01-10T05:19:01;10.43;;;3.25;;
82159;SDS011;71734;50.876;7.372;2024-01-10T05:21:29;8.95;;;2.67;;
82159;SDS011;71734;50.876;7.372;2024-01-10T05:23:55;9.77;;;2.92;;
82159;SDS011;71734;50.876;7.372;2024-01-10T05:26:22;9.27;;;3.20;;
82159;SDS011;71734;50.876;7.372;2024-01-10T05:28:49;9.48;;;2.97;;
82159;SDS011;71734;50.876;7.372;2024-01-10T05:31:15;9.68;;;2.97;;
82159;SDS011;71734;50.876;7.372;2024-01-10T05:33:43;10.45;;;3.03;;
82159;SDS011;71734;50.876;7.372;2024-01-10T05:36:10;9.52;;;3.42;;
82159;SDS011;71734;50.876;7.372;2024-01-10T05:38:37;9.77;;;3.42;;
82159;SDS011;71734;50.876;7.372;2024-01-10T05:41:05;11.25;;;3.17;;
82159;SDS011;71734;50.876;7.372;2024-01-10T05:43:31;10.98;;;3.50;;
82159;SDS011;71734;50.876;7.372;2024-01-10T05:45:58;9.98;;;3.20;;
82159;SDS011;71734;50.876;7.372;2024-01-10T05:48:25;9.57;;;3.20;;
82159;SDS011;71734;50.876;7.372;2024-01-10T05:50:53;8.52;;;2.85;;
82159;SDS011;71734;50.876;7.372;2024-01-10T05:53:19;9.13;;;3.30;;
82159;SDS011;71734;50.876;7.372;2024-01-10T05:55:46;11.20;;;3.10;;
82159;SDS011;71734;50.876;7.372;2024-01-10T05:58:12;10.05;;;3.20;;
82159;SDS011;71734;50.876;7.372;2024-01-10T06:00:39;10.23;;;3.22;;
82159;SDS011;71734;50.876;7.372;2024-01-10T06:03:05;9.70;;;3.00;;
82159;SDS011;71734;50.876;7.372;2024-01-10T06:05:32;10.25;;;3.10;;
82159;SDS011;71734;50.876;7.372;2024-01-10T06:08:00;9.23;;;3.13;;
82159;SDS011;71734;50.876;7.372;2024-01-10T06:10:29;9.68;;;3.20;;
82159;SDS011;71734;50.876;7.372;2024-01-10T06:12:55;9.80;;;2.97;;
82159;SDS011;71734;50.876;7.372;2024-01-10T06:15:22;9.73;;;2.95;;
82159;SDS011;71734;50.876;7.372;2024-01-10T06:17:48;10.88;;;3.50;;
82159;SDS011;71734;50.876;7.372;2024-01-10T06:20:15;11.88;;;3.60;;
82159;SDS011;71734;50.876;7.372;2024-01-10T06:22:42;10.57;;;3.10;;
82159;SDS011;71734;50.876;7.372;2024-01-10T06:25:10;9.80;;;3.33;;
82159;SDS011;71734;50.876;7.372;2024-01-10T06:27:36;10.32;;;3.13;;
82159;SDS011;71734;50.876;7.372;2024-01-10T06:30:03;10.52;;;3.40;;
82159;SDS011;71734;50.876;7.372;2024-01-10T06:32:30;8.70;;;2.60;;
82159;SDS011;71734;50.876;7.372;2024-01-10T06:34:56;9.70;;;3.50;;
82159;SDS011;71734;50.876;7.372;2024-01-10T06:37:23;9.32;;;3.28;;
82159;SDS011;71734;50.876;7.372;2024-01-10T06:39:55;11.10;;;3.55;;
82159;SDS011;71734;50.876;7.372;2024-01-10T06:42:23;10.20;;;3.83;;
82159;SDS011;71734;50.876;7.372;2024-01-10T06:44:52;10.00;;;3.30;;
82159;SDS011;71734;50.876;7.372;2024-01-10T06:47:19;10.55;;;3.38;;
82159;SDS011;71734;50.876;7.372;2024-01-10T06:49:46;10.68;;;3.40;;
82159;SDS011;71734;50.876;7.372;2024-01-10T06:52:13;11.13;;;3.72;;
82159;SDS011;71734;50.876;7.372;2024-01-10T06:54:41;12.48;;;3.30;;
82159;SDS011;71734;50.876;7.372;2024-01-10T06:57:08;10.68;;;3.47;;
82159;SDS011;71734;50.876;7.372;2024-01-10T06:59:35;10.93;;;3.22;;
82159;SDS011;71734;50.876;7.372;2024-01-10T07:02:02;12.57;;;3.70;;
82159;SDS011;71734;50.876;7.372;2024-01-10T07:04:30;12.27;;;3.40;;
82159;SDS011;71734;50.876;7.372;2024-01-10T07:06:57;11.18;;;3.92;;
82159;SDS011;71734;50.876;7.372;2024-01-10T07:09:23;10.23;;;3.67;;
82159;SDS011;71734;50.876;7.372;2024-01-10T07:11:50;9.65;;;3.20;;
82159;SDS011;71734;50.876;7.372;2024-01-10T07:14:16;9.25;;;2.85;;
82159;SDS011;71734;50.876;7.372;2024-01-10T07:16:44;12.15;;;2.95;;
82159;SDS011;71734;50.876;7.372;2024-01-10T07:19:10;11.63;;;3.65;;
82159;SDS011;71734;50.876;7.372;2024-01-10T07:21:38;9.40;;;3.13;;
82159;SDS011;71734;50.876;7.372;2024-01-10T07:24:05;9.05;;;2.92;;
82159;SDS011;71734;50.876;7.372;2024-01-10T07:26:33;9.93;;;2.97;;
82159;SDS011;71734;50.876;7.372;2024-01-10T07:29:00;9.00;;;2.75;;
82159;SDS011;71734;50.876;7.372;2024-01-10T07:31:27;9.25;;;3.00;;
82159;SDS011;71734;50.876;7.372;2024-01-10T07:33:55;10.15;;;3.30;;
82159;SDS011;71734;50.876;7.372;2024-01-10T07:36:22;10.38;;;3.47;;
82159;SDS011;71734;50.876;7.372;2024-01-10T07:38:48;10.23;;;3.30;;
82159;SDS011;71734;50.876;7.372;2024-01-10T07:41:15;10.13;;;3.38;;
82159;SDS011;71734;50.876;7.372;2024-01-10T07:43:41;10.02;;;3.28;;
82159;SDS011;71734;50.876;7.372;2024-01-10T07:46:08;12.15;;;3.60;;
82159;SDS011;71734;50.876;7.372;2024-01-10T07:48:35;12.38;;;3.65;;
82159;SDS011;71734;50.876;7.372;2024-01-10T07:51:04;10.48;;;3.53;;
82159;SDS011;71734;50.876;7.372;2024-01-10T07:53:31;9.30;;;3.22;;
82159;SDS011;71734;50.876;7.372;2024-01-10T07:55:57;11.00;;;3.60;;
82159;SDS011;71734;50.876;7.372;2024-01-10T07:58:24;12.85;;;3.85;;
82159;SDS011;71734;50.876;7.372;2024-01-10T08:00:50;11.73;;;3.33;;
82159;SDS011;71734;50.876;7.372;2024-01-10T08:03:17;11.65;;;3.78;;
82159;SDS011;71734;50.876;7.372;2024-01-10T08:05:43;12.30;;;3.33;;
82159;SDS011;71734;50.876;7.372;2024-01-10T08:08:11;12.10;;;3.60;;
82159;SDS011;71734;50.876;7.372;2024-01-10T08:10:38;11.98;;;4.38;;
82159;SDS011;71734;50.876;7.372;2024-01-10T08:13:05;10.50;;;3.72;;
82159;SDS011;71734;50.876;7.372;2024-01-10T08:15:31;12.43;;;4.07;;
82159;SDS011;71734;50.876;7.372;2024-01-10T08:17:59;12.65;;;3.95;;
82159;SDS011;71734;50.876;7.372;2024-01-10T08:20:27;13.32;;;4.10;;
82159;SDS011;71734;50.876;7.372;2024-01-10T08:22:54;14.20;;;4.80;;
82159;SDS011;71734;50.876;7.372;2024-01-10T08:25:22;13.15;;;4.75;;
82159;SDS011;71734;50.876;7.372;2024-01-10T08:27:48;13.32;;;4.45;;
82159;SDS011;71734;50.876;7.372;2024-01-10T08:30:17;13.35;;;4.55;;
82159;SDS011;71734;50.876;7.372;2024-01-10T08:32:43;16.17;;;4.68;;
82159;SDS011;71734;50.876;7.372;2024-01-10T08:35:10;12.15;;;3.83;;
82159;SDS011;71734;50.876;7.372;2024-01-10T08:37:36;12.00;;;4.10;;
82159;SDS011;71734;50.876;7.372;2024-01-10T08:40:06;12.48;;;3.85;;
82159;SDS011;71734;50.876;7.372;2024-01-10T08:42:38;11.30;;;4.10;;
82159;SDS011;71734;50.876;7.372;2024-01-10T08:45:05;11.40;;;4.38;;
82159;SDS011;71734;50.876;7.372;2024-01-10T08:47:34;13.48;;;5.18;;
82159;SDS011;71734;50.876;7.372;2024-01-10T08:50:01;13.38;;;4.35;;
82159;SDS011;71734;50.876;7.372;2024-01-10T08:52:29;14.45;;;4.32;;
82159;SDS011;71734;50.876;7.372;2024-01-10T08:54:56;10.20;;;3.53;;
82159;SDS011;71734;50.876;7.372;2024-01-10T08:57:24;11.73;;;4.50;;
82159;SDS011;71734;50.876;7.372;2024-01-10T08:59:53;12.07;;;4.45;;
82159;SDS011;71734;50.876;7.372;2024-01-10T09:02:20;11.73;;;4.43;;
82159;SDS011;71734;50.876;7.372;2024-01-10T09:04:48;11.98;;;3.97;;
82159;SDS011;71734;50.876;7.372;2024-01-10T09:07:14;13.07;;;5.07;;
82159;SDS011;71734;50.876;7.372;2024-01-10T09:09:42;11.98;;;4.68;;
82159;SDS011;71734;50.876;7.372;2024-01-10T09:12:09;12.23;;;3.97;;
82159;SDS011;71734;50.876;7.372;2024-01-10T09:14:35;13.40;;;4.38;;
82159;SDS011;71734;50.876;7.372;2024-01-10T09:17:03;11.25;;;4.35;;
82159;SDS011;71734;50.876;7.372;2024-01-10T09:19:30;12.18;;;4.70;;
82159;SDS011;71734;50.876;7.372;2024-01-10T09:21:56;14.20;;;4.90;;
82159;SDS011;71734;50.876;7.372;2024-01-10T09:24:23;14.63;;;5.80;;
82159;SDS011;71734;50.876;7.372;2024-01-10T09:26:51;15.98;;;5.57;;
82159;SDS011;71734;50.876;7.372;2024-01-10T09:29:17;15.48;;;4.78;;
82159;SDS011;71734;50.876;7.372;2024-01-10T09:31:43;15.45;;;5.20;;
82159;SDS011;71734;50.876;7.372;2024-01-10T09:34:11;16.38;;;5.95;;
82159;SDS011;71734;50.876;7.372;2024-01-10T09:36:38;13.88;;;4.82;;
82159;SDS011;71734;50.876;7.372;2024-01-10T09:39:04;14.13;;;5.07;;
82159;SDS011;71734;50.876;7.372;2024-01-10T09:41:36;13.65;;;5.10;;
82159;SDS011;71734;50.876;7.372;2024-01-10T09:44:11;15.38;;;5.47;;
82159;SDS011;71734;50.876;7.372;2024-01-10T09:46:38;15.25;;;5.22;;
82159;SDS011;71734;50.876;7.372;2024-01-10T09:49:07;17.08;;;5.70;;
82159;SDS011;71734;50.876;7.372;2024-01-10T09:51:35;16.27;;;5.88;;
82159;SDS011;71734;50.876;7.372;2024-01-10T09:54:02;15.75;;;5.22;;
82159;SDS011;71734;50.876;7.372;2024-01-10T09:56:29;16.92;;;6.07;;
82159;SDS011;71734;50.876;7.372;2024-01-10T09:58:57;18.00;;;6.35;;
82159;SDS011;71734;50.876;7.372;2024-01-10T10:01:24;16.10;;;5.78;;
82159;SDS011;71734;50.876;7.372;2024-01-10T10:03:52;18.05;;;6.25;;
82159;SDS011;71734;50.876;7.372;2024-01-10T10:06:21;15.55;;;6.32;;
82159;SDS011;71734;50.876;7.372;2024-01-10T10:08:49;16.00;;;5.68;;
82159;SDS011;71734;50.876;7.372;2024-01-10T10:11:16;17.30;;;6.53;;
82159;SDS011;71734;50.876;7.372;2024-01-10T10:13:42;17.27;;;6.35;;
82159;SDS011;71734;50.876;7.372;2024-01-10T10:16:09;18.55;;;5.90;;
82159;SDS011;71734;50.876;7.372;2024-01-10T10:18:37;17.42;;;5.90;;
82159;SDS011;71734;50.876;7.372;2024-01-10T10:21:06;16.40;;;6.53;;
82159;SDS011;71734;50.876;7.372;2024-01-10T10:23:34;14.77;;;6.13;;
82159;SDS011;71734;50.876;7.372;2024-01-10T10:26:11;18.67;;;6.82;;
82159;SDS011;71734;50.876;7.372;2024-01-10T10:28:39;17.17;;;5.85;;
82159;SDS011;71734;50.876;7.372;2024-01-10T10:31:07;15.88;;;5.82;;
82159;SDS011;71734;50.876;7.372;2024-01-10T10:33:33;17.48;;;6.63;;
82159;SDS011;71734;50.876;7.372;2024-01-10T10:36:00;18.23;;;6.70;;
82159;SDS011;71734;50.876;7.372;2024-01-10T10:38:26;24.15;;;7.70;;
82159;SDS011;71734;50.876;7.372;2024-01-10T10:40:53;20.13;;;7.07;;
82159;SDS011;71734;50.876;7.372;2024-01-10T10:43:21;17.83;;;6.38;;
82159;SDS011;71734;50.876;7.372;2024-01-10T10:45:49;17.92;;;6.05;;
82159;SDS011;71734;50.876;7.372;2024-01-10T10:48:16;19.60;;;6.72;;
82159;SDS011;71734;50.876;7.372;2024-01-10T10:50:48;17.08;;;5.88;;
82159;SDS011;71734;50.876;7.372;2024-01-10T10:53:20;16.55;;;6.18;;
82159;SDS011;71734;50.876;7.372;2024-01-10T10:55:49;18.63;;;6.47;;
82159;SDS011;71734;50.876;7.372;2024-01-10T10:58:17;16.02;;;6.50;;
82159;SDS011;71734;50.876;7.372;2024-01-10T11:00:45;18.17;;;6.72;;
82159;SDS011;71734;50.876;7.372;2024-01-10T11:03:13;17.60;;;6.25;;
82159;SDS011;71734;50.876;7.372;2024-01-10T11:05:42;17.33;;;6.15;;
82159;SDS011;71734;50.876;7.372;2024-01-10T11:08:10;17.73;;;6.25;;
82159;SDS011;71734;50.876;7.372;2024-01-10T11:13:13;18.73;;;6.70;;
82159;SDS011;71734;50.876;7.372;2024-01-10T11:16:08;19.80;;;6.07;;
82159;SDS011;71734;50.876;7.372;2024-01-10T11:18:54;14.98;;;6.35;;
82159;SDS011;71734;50.876;7.372;2024-01-10T11:21:37;17.55;;;6.32;;
82159;SDS011;71734;50.876;7.372;2024-01-10T11:24:13;14.70;;;5.90;;
82159;SDS011;71734;50.876;7.372;2024-01-10T11:26:40;15.63;;;6.60;;
82159;SDS011;71734;50.876;7.372;2024-01-10T11:29:07;16.95;;;5.70;;
82159;SDS011;71734;50.876;7.372;2024-01-10T11:31:35;17.92;;;6.22;;
82159;SDS011;71734;50.876;7.372;2024-01-10T11:34:01;18.42;;;6.43;;
82159;SDS011;71734;50.876;7.372;2024-01-10T11:36:32;17.25;;;6.15;;
82159;SDS011;71734;50.876;7.372;2024-01-10T11:39:08;19.60;;;6.32;;
82159;SDS011;71734;50.876;7.372;2024-01-10T11:41:38;17.42;;;6.43;;
82159;SDS011;71734;50.876;7.372;2024-01-10T11:44:27;17.02;;;6.10;;
82159;SDS011;71734;50.876;7.372;2024-01-10T11:46:56;17.35;;;6.00;;
82159;SDS011;71734;50.876;7.372;2024-01-10T11:49:24;17.70;;;6.22;;
82159;SDS011;71734;50.876;7.372;2024-01-10T11:51:53;16.83;;;6.25;;
82159;SDS011;71734;50.876;7.372;2024-01-10T11:54:36;15.95;;;6.30;;
82159;SDS011;71734;50.876;7.372;2024-01-10T11:57:08;16.02;;;6.35;;
82159;SDS011;71734;50.876;7.372;2024-01-10T11:59:43;17.27;;;6.25;;
82159;SDS011;71734;50.876;7.372;2024-01-10T12:02:14;18.40;;;6.10;;
82159;SDS011;71734;50.876;7.372;2024-01-10T12:04:41;17.35;;;6.13;;
82159;SDS011;71734;50.876;7.372;2024-01-10T12:07:08;18.08;;;6.60;;
82159;SDS011;71734;50.876;7.372;2024-01-10T12:09:35;15.57;;;5.22;;
82159;SDS011;71734;50.876;7.372;2024-01-10T12:12:02;16.83;;;6.35;;
82159;SDS011;71734;50.876;7.372;2024-01-10T12:14:29;19.33;;;6.40;;
82159;SDS011;71734;50.876;7.372;2024-01-10T12:16:56;16.45;;;6.75;;
82159;SDS011;71734;50.876;7.372;2024-01-10T12:19:24;16.67;;;6.00;;
82159;SDS011;71734;50.876;7.372;2024-01-10T12:21:51;18.63;;;7.03;;
82159;SDS011;71734;50.876;7.372;2024-01-10T12:24:20;17.55;;;6.10;;
82159;SDS011;71734;50.876;7.372;2024-01-10T12:26:47;19.88;;;6.63;;
82159;SDS011;71734;50.876;7.372;2024-01-10T12:29:16;16.67;;;6.22;;
82159;SDS011;71734;50.876;7.372;2024-01-10T12:31:45;16.25;;;6.30;;
82159;SDS011;71734;50.876;7.372;2024-01-10T12:34:11;19.58;;;7.25;;
82159;SDS011;71734;50.876;7.372;2024-01-10T12:36:40;21.75;;;7.57;;
82159;SDS011;71734;50.876;7.372;2024-01-10T12:39:07;17.58;;;6.90;;
82159;SDS011;71734;50.876;7.372;2024-01-10T12:41:34;17.05;;;6.13;;
82159;SDS011;71734;50.876;7.372;2024-01-10T12:44:01;18.15;;;6.45;;
82159;SDS011;71734;50.876;7.372;2024-01-10T12:46:29;19.23;;;6.45;;
82159;SDS011;71734;50.876;7.372;2024-01-10T12:48:59;17.23;;;5.90;;
82159;SDS011;71734;50.876;7.372;2024-01-10T12:51:27;19.42;;;6.93;;
82159;SDS011;71734;50.876;7.372;2024-01-10T12:53:56;18.98;;;6.88;;
82159;SDS011;71734;50.876;7.372;2024-01-10T12:56:24;17.80;;;6.65;;
82159;SDS011;71734;50.876;7.372;2024-01-10T12:58:51;17.45;;;6.32;;
82159;SDS011;71734;50.876;7.372;2024-01-10T13:01:19;37.00;;;13.98;;
82159;SDS011;71734;50.876;7.372;2024-01-10T13:03:45;19.17;;;7.20;;
82159;SDS011;71734;50.876;7.372;2024-01-10T13:06:13;20.88;;;7.55;;
82159;SDS011;71734;50.876;7.372;2024-01-10T13:08:40;17.23;;;6.75;;
82159;SDS011;71734;50.876;7.372;2024-01-10T13:11:08;18.33;;;6.70;;
82159;SDS011;71734;50.876;7.372;2024-01-10T13:13:35;19.17;;;6.03;;
82159;SDS011;71734;50.876;7.372;2024-01-10T13:16:01;20.15;;;7.68;;
82159;SDS011;71734;50.876;7.372;2024-01-10T13:18:28;19.27;;;6.65;;
82159;SDS011;71734;50.876;7.372;2024-01-10T13:20:55;16.88;;;6.30;;
82159;SDS011;71734;50.876;7.372;2024-01-10T13:23:21;20.00;;;7.43;;
82159;SDS011;71734;50.876;7.372;2024-01-10T13:25:49;22.38;;;7.82;;
82159;SDS011;71734;50.876;7.372;2024-01-10T13:28:17;31.40;;;10.85;;
82159;SDS011;71734;50.876;7.372;2024-01-10T13:30:44;19.15;;;6.97;;
82159;SDS011;71734;50.876;7.372;2024-01-10T13:33:10;15.85;;;6.45;;
82159;SDS011;71734;50.876;7.372;2024-01-10T13:35:38;17.17;;;6.60;;
82159;SDS011;71734;50.876;7.372;2024-01-10T13:38:05;17.40;;;6.45;;
82159;SDS011;71734;50.876;7.372;2024-01-10T13:40:31;20.17;;;6.90;;
82159;SDS011;71734;50.876;7.372;2024-01-10T13:42:59;17.73;;;6.15;;
82159;SDS011;71734;50.876;7.372;2024-01-10T13:45:29;20.90;;;6.40;;
82159;SDS011;71734;50.876;7.372;2024-01-10T13:47:56;16.98;;;6.80;;
82159;SDS011;71734;50.876;7.372;2024-01-10T13:50:24;18.40;;;6.28;;
82159;SDS011;71734;50.876;7.372;2024-01-10T13:52:52;15.23;;;6.13;;
82159;SDS011;71734;50.876;7.372;2024-01-10T13:55:19;15.10;;;5.78;;
82159;SDS011;71734;50.876;7.372;2024-01-10T13:57:45;17.10;;;5.90;;
82159;SDS011;71734;50.876;7.372;2024-01-10T14:00:12;17.58;;;6.28;;
82159;SDS011;71734;50.876;7.372;2024-01-10T14:02:41;18.85;;;7.10;;
82159;SDS011;71734;50.876;7.372;2024-01-10T14:05:07;27.35;;;9.15;;
82159;SDS011;71734;50.876;7.372;2024-01-10T14:07:35;17.58;;;6.22;;
82159;SDS011;71734;50.876;7.372;2024-01-10T14:10:01;15.98;;;5.90;;
82159;SDS011;71734;50.876;7.372;2024-01-10T14:12:28;17.48;;;5.97;;
82159;SDS011;71734;50.876;7.372;2024-01-10T14:14:55;17.15;;;6.15;;
82159;SDS011;71734;50.876;7.372;2024-01-10T14:17:21;15.95;;;6.00;;
82159;SDS011;71734;50.876;7.372;2024-01-10T14:19:50;14.77;;;5.53;;
82159;SDS011;71734;50.876;7.372;2024-01-10T14:22:17;15.93;;;5.90;;
82159;SDS011;71734;50.876;7.372;2024-01-10T14:24:44;15.15;;;5.65;;
82159;SDS011;71734;50.876;7.372;2024-01-10T14:27:12;15.23;;;5.80;;
82159;SDS011;71734;50.876;7.372;2024-01-10T14:29:39;15.70;;;6.05;;
82159;SDS011;71734;50.876;7.372;2024-01-10T14:32:05;16.88;;;6.15;;
82159;SDS011;71734;50.876;7.372;2024-01-10T14:34:32;17.35;;;6.32;;
82159;SDS011;71734;50.876;7.372;2024-01-10T14:37:00;14.35;;;5.68;;
82159;SDS011;71734;50.876;7.372;2024-01-10T14:39:26;14.98;;;5.15;;
82159;SDS011;71734;50.876;7.372;2024-01-10T14:41:52;18.73;;;6.10;;